Time;durP1;ratioP1;P1;durP2;ratioP2;P2;SDS_P1;SDS_P2;PMS_P1;PMS_P2;Temp;Humidity;BMP_temperature;BMP_pressure;BME280_temperature;BME280_humidity;BME280_pressure;Samples;Min_cycle;Max_cycle;Signal;HPM_P1;HPM_P2
2021/04/09 00:00:22;;;;;;;1999.90;999.90;;;4.60;99.90;;;;;;4827603;29;20592;-82
2021/04/09 00:02:48;;;;;;;1999.90;999.90;;;4.60;99.90;;;;;;4827081;29;20185;-82
2021/04/09 00:05:17;;;;;;;1999.90;999.90;;;4.60;99.90;;;;;;4827161;29;20786;-83
2021/04/09 00:07:42;;;;;;;1999.90;999.90;;;4.50;99.90;;;;;;4810492;29;20204;-82
2021/04/09 00:10:09;;;;;;;1999.90;999.90;;;4.50;99.90;;;;;;4826993;29;20626;-82
2021/04/09 00:12:36;;;;;;;1999.90;999.90;;;4.50;99.90;;;;;;4827123;29;20172;-84
2021/04/09 00:15:07;;;;;;;1999.90;999.90;;;4.60;99.90;;;;;;4811800;29;20199;-85
2021/04/09 00:17:33;;;;;;;1999.90;999.90;;;4.50;99.90;;;;;;4826465;29;20733;-83
2021/04/09 00:19:59;;;;;;;1999.90;999.90;;;4.50;99.90;;;;;;4826568;29;20204;-83
2021/04/09 00:22:24;;;;;;;1999.90;999.90;;;4.50;99.90;;;;;;4826705;29;20533;-83
2021/04/09 00:24:50;;;;;;;1999.90;999.90;;;4.40;99.90;;;;;;4826466;29;20248;-82
2021/04/09 00:27:16;;;;;;;1999.90;999.90;;;4.40;99.90;;;;;;4827068;29;20232;-82
2021/04/09 00:29:41;;;;;;;1999.90;999.90;;;4.30;99.90;;;;;;4826844;29;20169;-82
2021/04/09 00:32:07;;;;;;;1999.90;999.90;;;4.30;99.90;;;;;;4827082;29;20168;-82
2021/04/09 00:34:33;;;;;;;1999.90;999.90;;;4.30;99.90;;;;;;4827667;29;20188;-82
2021/04/09 00:36:59;;;;;;;1999.90;999.90;;;4.30;99.90;;;;;;4810201;29;20462;-82
2021/04/09 00:39:24;;;;;;;1999.90;999.90;;;4.30;99.90;;;;;;4826352;29;20179;-84
2021/04/09 00:41:50;;;;;;;1999.90;999.90;;;4.20;99.90;;;;;;4826853;29;20149;-84
2021/04/09 00:44:16;;;;;;;1999.90;999.90;;;4.30;99.90;;;;;;4826310;29;20633;-84
2021/04/09 00:46:41;;;;;;;1999.90;999.90;;;4.30;99.90;;;;;;4826189;29;20800;-84
2021/04/09 00:49:07;;;;;;;1999.90;999.90;;;4.20;99.90;;;;;;4826934;29;20161;-84
2021/04/09 00:51:34;;;;;;;1999.90;999.90;;;4.10;99.90;;;;;;4810777;29;20185;-84
2021/04/09 00:54:02;;;;;;;1999.90;999.90;;;4.10;99.90;;;;;;4826733;29;20192;-84
2021/04/09 00:56:29;;;;;;;1999.90;999.90;;;4.10;99.90;;;;;;4826483;29;20218;-84
2021/04/09 00:58:56;;;;;;;1999.90;999.90;;;4.20;99.90;;;;;;4826411;29;20165;-84
2021/04/09 01:01:23;;;;;;;1999.90;999.90;;;4.10;99.90;;;;;;4826180;29;20173;-82
2021/04/09 01:03:51;;;;;;;1999.90;999.90;;;4.10;99.90;;;;;;4827099;29;20176;-82
2021/04/09 01:06:18;;;;;;;1999.90;999.90;;;4.10;99.90;;;;;;4826771;29;20195;-83
2021/04/09 01:08:45;;;;;;;1999.90;999.90;;;4.00;99.90;;;;;;4826665;29;20220;-84
2021/04/09 01:11:11;;;;;;;1999.90;999.90;;;3.90;99.90;;;;;;4829638;29;20173;-84
2021/04/09 01:13:37;;;;;;;1999.90;999.90;;;4.00;99.90;;;;;;4829282;29;20252;-84
2021/04/09 01:16:10;;;;;;;1999.90;999.90;;;4.00;99.90;;;;;;4829530;29;20181;-84
2021/04/09 01:19:09;;;;;;;1999.90;999.90;;;4.10;99.90;;;;;;4829796;29;20610;-84
2021/04/09 01:21:59;;;;;;;1999.90;999.90;;;4.00;99.90;;;;;;4823821;29;20195;-84
2021/04/09 01:24:52;;;;;;;1999.90;999.90;;;4.00;99.90;;;;;;4828719;29;20181;-84
2021/04/09 01:28:04;;;;;;;1999.90;999.90;;;4.10;99.90;;;;;;4828314;29;20203;-84
2021/04/09 01:30:53;;;;;;;1999.90;999.90;;;4.10;99.90;;;;;;4820352;29;20717;-82
2021/04/09 01:33:29;;;;;;;1999.90;999.90;;;4.10;99.90;;;;;;4829166;29;20172;-83
2021/04/09 01:36:02;;;;;;;1999.90;999.90;;;4.00;99.90;;;;;;4828963;29;20184;-82
2021/04/09 01:38:31;;;;;;;1999.90;999.90;;;4.00;99.90;;;;;;4812728;29;20173;-84
2021/04/09 01:41:00;;;;;;;1999.90;999.90;;;4.00;99.90;;;;;;4829011;29;20610;-83
2021/04/09 01:43:26;;;;;;;1999.90;999.90;;;4.00;99.90;;;;;;4828673;29;20169;-84
2021/04/09 01:45:52;;;;;;;1999.90;999.90;;;4.00;99.90;;;;;;4829298;29;20225;-84
2021/04/09 01:48:19;;;;;;;1999.90;999.90;;;4.00;99.90;;;;;;4827585;29;20268;-84
2021/04/09 01:50:46;;;;;;;1999.90;999.90;;;4.00;99.90;;;;;;4828599;29;20170;-84
2021/04/09 01:53:14;;;;;;;1999.90;999.90;;;4.00;99.90;;;;;;4829098;29;20175;-82
2021/04/09 01:55:47;;;;;;;1999.90;999.90;;;4.00;99.90;;;;;;4812955;29;20196;-82
2021/04/09 01:58:14;;;;;;;1999.90;999.90;;;4.00;99.90;;;;;;4828989;29;20145;-81
2021/04/09 02:00:41;;;;;;;1999.90;999.90;;;4.00;99.90;;;;;;4812406;29;20236;-84
2021/04/09 02:03:08;;;;;;;1999.90;999.90;;;4.00;99.90;;;;;;4812586;29;20290;-82
2021/04/09 02:05:35;;;;;;;1999.90;999.90;;;4.10;99.90;;;;;;4829148;29;20177;-82
2021/04/09 02:08:02;;;;;;;1999.90;999.90;;;4.10;99.90;;;;;;4829150;29;20649;-82
2021/04/09 02:10:28;;;;;;;1999.90;999.90;;;4.10;99.90;;;;;;4812334;29;20209;-82
2021/04/09 02:12:55;;;;;;;1999.90;999.90;;;4.10;99.90;;;;;;4812566;29;20180;-81
2021/04/09 02:15:23;;;;;;;1999.90;999.90;;;4.10;99.90;;;;;;4829511;29;20962;-82
2021/04/09 02:17:49;;;;;;;1999.90;999.90;;;4.10;99.90;;;;;;4829262;29;20604;-82
2021/04/09 02:20:20;;;;;;;1999.90;999.90;;;4.10;99.90;;;;;;4827386;29;20172;-84
2021/04/09 02:22:48;;;;;;;1999.90;999.90;;;4.10;99.90;;;;;;4828155;29;20177;-81
2021/04/09 02:25:18;;;;;;;1999.90;999.90;;;4.20;99.90;;;;;;4811563;29;20653;-82
2021/04/09 02:27:45;;;;;;;1999.90;999.90;;;4.10;99.90;;;;;;4827967;29;20200;-82
2021/04/09 02:30:11;;;;;;;1999.90;999.90;;;4.10;99.90;;;;;;4827807;29;20535;-83
2021/04/09 02:32:37;;;;;;;1999.90;999.90;;;4.10;99.90;;;;;;4828336;29;20207;-82
2021/04/09 02:35:07;;;;;;;1999.90;999.90;;;4.20;99.90;;;;;;4828117;29;20196;-82
2021/04/09 02:37:33;;;;;;;1999.90;999.90;;;4.20;99.90;;;;;;4827921;29;20195;-82
2021/04/09 02:40:07;;;;;;;1999.90;999.90;;;4.20;99.90;;;;;;4827557;29;20255;-83
2021/04/09 02:42:34;;;;;;;1999.90;999.90;;;4.20;99.90;;;;;;4811874;29;20173;-84
2021/04/09 02:45:00;;;;;;;1999.90;999.90;;;4.10;99.90;;;;;;4827999;29;20183;-81
2021/04/09 02:47:28;;;;;;;1999.90;999.90;;;4.10;99.90;;;;;;4811150;29;20287;-82
2021/04/09 02:50:16;;;;;;;1999.90;999.90;;;4.10;99.90;;;;;;4827386;29;20176;-82
2021/04/09 02:52:54;;;;;;;1999.90;999.90;;;4.00;99.90;;;;;;4827243;29;20176;-83
2021/04/09 02:55:25;;;;;;;1999.90;999.90;;;4.00;99.90;;;;;;4810712;29;20571;-81
2021/04/09 02:57:52;;;;;;;1999.90;999.90;;;4.00;99.90;;;;;;4827175;29;20188;-82
2021/04/09 03:00:18;;;;;;;1999.90;999.90;;;4.00;99.90;;;;;;4826932;29;20180;-81
2021/04/09 03:02:47;;;;;;;1999.90;999.90;;;4.00;99.90;;;;;;4827288;29;20212;-82
2021/04/09 03:05:14;;;;;;;1999.90;999.90;;;4.00;99.90;;;;;;4827604;29;20172;-82
2021/04/09 03:07:41;;;;;;;1999.90;999.90;;;4.00;99.90;;;;;;4826383;29;20203;-82
2021/04/09 03:10:09;;;;;;;1999.90;999.90;;;3.90;99.90;;;;;;4826975;29;20232;-82
2021/04/09 03:12:35;;;;;;;1999.90;999.90;;;3.90;99.90;;;;;;4826750;29;20260;-82
2021/04/09 03:15:02;;;;;;;1999.90;999.90;;;3.90;99.90;;;;;;4810558;29;20287;-82
2021/04/09 03:17:52;;;;;;;1999.90;999.90;;;3.90;99.90;;;;;;4827365;29;20193;-83
2021/04/09 03:20:18;;;;;;;1999.90;999.90;;;3.90;99.90;;;;;;4826887;29;20621;-83
2021/04/09 03:22:43;;;;;;;1999.90;999.90;;;3.90;99.90;;;;;;4810516;29;20272;-83
2021/04/09 03:25:09;;;;;;;1999.90;999.90;;;3.80;99.90;;;;;;4826854;29;20270;-82
2021/04/09 03:27:35;;;;;;;1999.90;999.90;;;3.80;99.90;;;;;;4827081;29;20725;-82
2021/04/09 03:30:01;;;;;;;1999.90;999.90;;;3.80;99.90;;;;;;4826791;29;20187;-82
2021/04/09 03:32:27;;;;;;;1999.90;999.90;;;3.80;99.90;;;;;;4826757;29;20207;-82
2021/04/09 03:34:52;;;;;;;1999.90;999.90;;;3.70;99.90;;;;;;4826666;29;20244;-82
2021/04/09 03:37:18;;;;;;;1999.90;999.90;;;3.70;99.90;;;;;;4826538;29;20272;-81
2021/04/09 03:39:43;;;;;;;1999.90;999.90;;;3.70;99.90;;;;;;4827103;29;20259;-83
2021/04/09 03:42:09;;;;;;;1999.90;999.90;;;3.70;99.90;;;;;;4810206;29;20180;-84
2021/04/09 03:44:35;;;;;;;1999.90;999.90;;;3.80;99.90;;;;;;4826799;29;20636;-84
2021/04/09 03:47:01;;;;;;;1999.90;999.90;;;3.70;99.90;;;;;;4810444;29;20434;-82
2021/04/09 03:49:26;;;;;;;1999.90;999.90;;;3.70;99.90;;;;;;4826451;29;20176;-82
2021/04/09 03:51:52;;;;;;;1999.90;999.90;;;3.70;99.90;;;;;;4826901;29;20173;-82
2021/04/09 03:54:18;;;;;;;1999.90;999.90;;;3.70;99.90;;;;;;4809848;29;20208;-82
2021/04/09 03:56:44;;;;;;;1999.90;999.90;;;3.70;99.90;;;;;;4826226;29;20271;-81
2021/04/09 03:59:09;;;;;;;1999.90;999.90;;;3.80;99.90;;;;;;4810196;29;20213;-82
2021/04/09 04:01:35;;;;;;;1999.90;999.90;;;3.80;99.90;;;;;;4826221;29;20417;-82
2021/04/09 04:04:01;;;;;;;1999.90;999.90;;;3.80;99.90;;;;;;4826572;29;20232;-82
2021/04/09 04:06:27;;;;;;;1999.90;999.90;;;3.80;99.90;;;;;;4825891;29;20827;-84
2021/04/09 04:08:52;;;;;;;1999.90;999.90;;;3.80;99.90;;;;;;4825801;29;20173;-84
2021/04/09 04:11:18;;;;;;;1999.90;999.90;;;3.90;99.90;;;;;;4826373;29;20652;-84
2021/04/09 04:13:44;;;;;;;1999.90;999.90;;;3.90;99.90;;;;;;4826230;29;20183;-83
2021/04/09 04:16:10;;;;;;;1999.90;999.90;;;3.90;99.90;;;;;;4826517;29;20676;-84
2021/04/09 04:18:38;;;;;;;1999.90;999.90;;;3.90;99.90;;;;;;4826039;29;20470;-84
2021/04/09 04:21:04;;;;;;;1999.90;999.90;;;3.90;99.90;;;;;;4826131;29;20849;-84
2021/04/09 04:23:30;;;;;;;1999.90;999.90;;;3.80;99.90;;;;;;4825838;29;20249;-84
2021/04/09 04:25:56;;;;;;;1999.90;999.90;;;3.80;99.90;;;;;;4825750;29;20196;-84
2021/04/09 04:28:26;;;;;;;1999.90;999.90;;;3.80;99.90;;;;;;4825716;29;20725;-83
2021/04/09 04:30:53;;;;;;;1999.90;999.90;;;3.70;99.90;;;;;;4810150;29;20180;-84
2021/04/09 04:33:19;;;;;;;1999.90;999.90;;;3.70;99.90;;;;;;4809806;29;20271;-84
2021/04/09 04:35:45;;;;;;;1999.90;999.90;;;3.70;99.90;;;;;;4825633;29;20192;-84
2021/04/09 04:38:11;;;;;;;1999.90;999.90;;;3.70;99.90;;;;;;4826135;29;20652;-83
2021/04/09 04:40:37;;;;;;;1999.90;999.90;;;3.60;99.90;;;;;;4826150;29;20176;-84
2021/04/09 04:43:06;;;;;;;1999.90;999.90;;;3.60;99.90;;;;;;4826029;29;20617;-85
2021/04/09 04:45:32;;;;;;;1999.90;999.90;;;3.60;99.90;;;;;;4830019;29;20176;-83
2021/04/09 04:47:59;;;;;;;1999.90;999.90;;;3.60;99.90;;;;;;4812955;29;20205;-84
2021/04/09 04:50:25;;;;;;;1999.90;999.90;;;3.60;99.90;;;;;;4829458;29;20179;-84
2021/04/09 04:52:51;;;;;;;1999.90;999.90;;;3.50;99.90;;;;;;4829787;29;20536;-82
2021/04/09 04:55:20;;;;;;;1999.90;999.90;;;3.50;99.90;;;;;;4829535;29;20192;-84
2021/04/09 04:57:45;;;;;;;1999.90;999.90;;;3.40;99.90;;;;;;4813281;29;20269;-84
2021/04/09 05:00:12;;;;;;;1999.90;999.90;;;3.40;99.90;;;;;;4829909;29;20173;-83
2021/04/09 05:02:38;;;;;;;1999.90;999.90;;;3.40;99.90;;;;;;4829503;29;20205;-84
2021/04/09 05:05:04;;;;;;;1999.90;999.90;;;3.50;99.90;;;;;;4830179;29;20561;-84
2021/04/09 05:07:31;;;;;;;1999.90;999.90;;;3.50;99.90;;;;;;4812717;29;20198;-82
2021/04/09 05:09:58;;;;;;;1999.90;999.90;;;3.60;99.90;;;;;;4829233;29;20176;-82
2021/04/09 05:12:23;;;;;;;1999.90;999.90;;;3.60;99.90;;;;;;4829193;29;20522;-84
2021/04/09 05:14:54;;;;;;;1999.90;999.90;;;3.60;99.90;;;;;;4829537;29;20252;-84
2021/04/09 05:17:20;;;;;;;1999.90;999.90;;;3.60;99.90;;;;;;4828946;29;20219;-83
2021/04/09 05:19:46;;;;;;;1999.90;999.90;;;3.60;99.90;;;;;;4829843;29;20172;-84
2021/04/09 05:22:11;;;;;;;1999.90;999.90;;;3.70;99.90;;;;;;4829577;29;20189;-83
2021/04/09 05:24:49;;;;;;;1999.90;999.90;;;3.80;99.90;;;;;;4941268;23;20401;-90
2021/04/09 05:27:59;;;;;;;1999.90;999.90;;;3.80;99.90;;;;;;4833923;29;20184;-90
2021/04/09 05:30:55;;;;;;;;;;;;;;;;;;;;;
2021/04/09 05:33:37;;;;;;;1999.90;999.90;;;3.80;99.90;;;;;;4833545;29;20255;-90
2021/04/09 05:36:13;;;;;;;1999.90;999.90;;;3.90;99.90;;;;;;4818773;29;20307;-90
2021/04/09 05:38:51;;;;;;;1999.90;999.90;;;3.90;99.90;;;;;;4816746;29;20229;-91
2021/04/09 05:41:25;;;;;;;1999.90;999.90;;;3.90;99.90;;;;;;4815628;29;20297;-91
2021/04/09 05:44:15;;;;;;;1999.90;999.90;;;3.90;99.90;;;;;;4833303;29;20233;-92
2021/04/09 05:47:06;;;;;;;1999.90;999.90;;;3.90;99.90;;;;;;4816541;29;20257;-92
2021/04/09 05:49:36;;;;;;;1999.90;999.90;;;4.00;99.90;;;;;;4832412;29;20177;-92
2021/04/09 05:52:09;;;;;;;1999.90;999.90;;;4.30;99.90;;;;;;4833487;29;20203;-91
2021/04/09 05:54:42;;;;;;;1999.90;999.90;;;4.30;99.90;;;;;;4815454;29;20207;-91
2021/04/09 05:57:39;;;;;;;1999.90;999.90;;;4.40;99.90;;;;;;4816572;29;20189;-91
2021/04/09 06:00:52;;;;;;;1999.90;999.90;;;4.50;99.90;;;;;;4815057;29;20184;-92
2021/04/09 06:03:18;;;;;;;1999.90;999.90;;;4.60;99.90;;;;;;4780418;30;20212;-92
2021/04/09 06:05:49;;;;;;;1999.90;999.90;;;4.70;99.90;;;;;;4778798;29;20186;-91
2021/04/09 06:09:02;;;;;;;1999.90;999.90;;;4.90;99.90;;;;;;4795419;30;20442;-92
2021/04/09 06:11:40;;;;;;;1999.90;999.90;;;5.00;99.90;;;;;;4770956;30;20195;-92
2021/04/09 06:14:08;;;;;;;1999.90;999.90;;;5.10;99.90;;;;;;4763919;30;20205;-91
2021/04/09 06:17:07;;;;;;;;;;;;;;;;;;;;;
2021/04/09 06:20:35;;;;;;;;;;;;;;;;;;;;;
2021/04/09 06:32:07;;;;;;;1999.90;999.90;;;6.50;99.90;;;;;;5672190;23;20244;-93
2021/04/09 07:43:18;;;;;;;1999.90;999.90;;;8.80;82.20;;;;;;4830471;29;20212;-87
2021/04/09 07:49:57;;;;;;;;;;;;;;;;;;;;;
2021/04/09 11:24:36;;;;;;;1999.90;999.90;;;15.40;1.00;;;;;;5466610;23;20500;-83
2021/04/09 11:27:18;;;;;;;1999.90;999.90;;;15.50;1.00;;;;;;4833849;29;20477;-82
2021/04/09 11:29:44;;;;;;;1999.90;999.90;;;15.40;1.00;;;;;;4816958;29;20418;-83
2021/04/09 11:32:13;;;;;;;1999.90;999.90;;;15.50;1.00;;;;;;4817106;29;20418;-82
2021/04/09 11:34:41;;;;;;;1999.90;999.90;;;15.60;1.00;;;;;;4834848;29;20457;-83
2021/04/09 11:37:09;;;;;;;1999.90;999.90;;;15.70;1.00;;;;;;4833781;29;20448;-83
2021/04/09 11:39:35;;;;;;;1999.90;999.90;;;15.70;1.00;;;;;;4833679;29;20429;-82
2021/04/09 11:42:05;;;;;;;1999.90;999.90;;;15.90;1.00;;;;;;4835265;29;20410;-83
2021/04/09 11:44:37;;;;;;;1999.90;999.90;;;16.00;1.00;;;;;;4834295;29;20954;-83
2021/04/09 11:47:27;;;;;;;1999.90;999.90;;;16.00;1.00;;;;;;4835168;29;20445;-83
2021/04/09 11:50:02;;;;;;;1999.90;999.90;;;16.10;1.00;;;;;;4817226;29;20429;-84
2021/04/09 11:52:28;;;;;;;1999.90;999.90;;;16.40;1.00;;;;;;4832759;29;20418;-83
2021/04/09 11:54:54;;;;;;;1999.90;999.90;;;16.40;1.00;;;;;;4833945;29;20445;-83
2021/04/09 11:57:22;;;;;;;1999.90;999.90;;;16.50;1.00;;;;;;4833075;29;20434;-83
2021/04/09 11:59:47;;;;;;;1999.90;999.90;;;16.60;1.00;;;;;;4816081;29;20181;-83
2021/04/09 12:02:19;;;;;;;1999.90;999.90;;;16.90;1.00;;;;;;4833612;29;20440;-82
2021/04/09 12:04:45;;;;;;;1999.90;999.90;;;17.10;1.00;;;;;;4832731;29;20587;-83
2021/04/09 12:07:21;;;;;;;1999.90;999.90;;;17.10;1.00;;;;;;4817135;29;20472;-83
2021/04/09 12:09:52;;;;;;;1999.90;999.90;;;17.00;1.00;;;;;;4814472;29;20410;-83
2021/04/09 12:12:18;;;;;;;1999.90;999.90;;;17.20;1.00;;;;;;4816424;29;20410;-83
2021/04/09 12:14:45;;;;;;;1999.90;999.90;;;17.40;1.00;;;;;;4832418;29;20514;-84
2021/04/09 12:17:13;;;;;;;1999.90;999.90;;;17.10;1.00;;;;;;4832166;29;20464;-83
2021/04/09 12:19:42;;;;;;;1999.90;999.90;;;17.00;1.00;;;;;;4831429;29;20416;-82
2021/04/09 12:22:09;;;;;;;1999.90;999.90;;;17.20;1.00;;;;;;4800147;29;20834;-84
2021/04/09 12:24:36;;;;;;;1999.90;999.90;;;17.30;1.00;;;;;;4815140;29;20789;-83
2021/04/09 12:27:03;;;;;;;1999.90;999.90;;;17.10;1.00;;;;;;4832563;29;20796;-83
2021/04/09 12:29:29;;;;;;;1999.90;999.90;;;16.80;1.00;;;;;;4833234;29;20436;-83
2021/04/09 12:31:55;;;;;;;1999.90;999.90;;;16.70;1.00;;;;;;4831433;29;20468;-82
2021/04/09 12:34:24;;;;;;;1999.90;999.90;;;16.70;1.00;;;;;;4831262;29;20199;-83
2021/04/09 12:36:50;;;;;;;1999.90;999.90;;;16.70;1.00;;;;;;4831176;29;20954;-83
2021/04/09 12:39:17;;;;;;;1999.90;999.90;;;16.70;1.00;;;;;;4832174;29;20407;-84
2021/04/09 12:41:44;;;;;;;1999.90;999.90;;;16.80;1.00;;;;;;4831922;29;20410;-84
2021/04/09 12:44:42;;;;;;;1999.90;999.90;;;16.90;1.00;;;;;;4831269;29;20410;-84
2021/04/09 12:47:08;;;;;;;1999.90;999.90;;;16.90;1.00;;;;;;4832018;29;20474;-84
2021/04/09 12:49:33;;;;;;;1999.90;999.90;;;17.10;1.00;;;;;;4814958;29;20466;-84
2021/04/09 12:51:59;;;;;;;1999.90;999.90;;;17.40;1.00;;;;;;4829822;29;20233;-83
2021/04/09 12:54:25;;;;;;;1999.90;999.90;;;17.30;1.00;;;;;;4814704;29;20197;-83
2021/04/09 12:56:57;;;;;;;1999.90;999.90;;;17.10;1.00;;;;;;4814334;29;20198;-82
2021/04/09 12:59:22;;;;;;;1999.90;999.90;;;17.00;1.00;;;;;;4815060;29;20173;-83
2021/04/09 13:01:49;;;;;;;1999.90;999.90;;;17.10;1.00;;;;;;4814127;29;20445;-83
2021/04/09 13:04:15;;;;;;;1999.90;999.90;;;17.40;1.00;;;;;;4831086;29;20198;-83
2021/04/09 13:06:41;;;;;;;1999.90;999.90;;;17.50;1.00;;;;;;4833686;29;20427;-83
2021/04/09 13:09:08;;;;;;;1999.90;999.90;;;17.40;1.00;;;;;;4833558;29;20416;-82
2021/04/09 13:11:37;;;;;;;1999.90;999.90;;;17.50;1.00;;;;;;4817945;29;20422;-84
2021/04/09 13:14:04;;;;;;;1999.90;999.90;;;17.60;1.00;;;;;;4817746;29;20445;-84
2021/04/09 13:16:30;;;;;;;1999.90;999.90;;;17.70;1.00;;;;;;4833359;29;20962;-84
2021/04/09 13:18:56;;;;;;;1999.90;999.90;;;17.40;1.00;;;;;;4801896;29;20762;-83
2021/04/09 13:21:22;;;;;;;1999.90;999.90;;;17.60;1.00;;;;;;4833507;29;20874;-83
2021/04/09 13:23:49;;;;;;;1999.90;999.90;;;17.50;1.00;;;;;;4833114;29;20413;-83
2021/04/09 13:26:15;;;;;;;1999.90;999.90;;;17.60;1.00;;;;;;4835713;29;20518;-83
2021/04/09 13:28:41;;;;;;;1999.90;999.90;;;17.70;1.00;;;;;;4817721;29;20429;-83
2021/04/09 13:31:06;;;;;;;1999.90;999.90;;;17.60;1.00;;;;;;4833916;29;20423;-83
2021/04/09 13:33:34;;;;;;;1999.90;999.90;;;17.80;1.00;;;;;;4834822;29;20186;-83
2021/04/09 13:36:02;;;;;;;1999.90;999.90;;;17.90;1.00;;;;;;4834725;29;20206;-83
2021/04/09 13:38:28;;;;;;;1999.90;999.90;;;17.90;1.00;;;;;;4816444;29;20996;-83
2021/04/09 13:40:55;;;;;;;1999.90;999.90;;;18.00;1.00;;;;;;4833141;29;20419;-83
2021/04/09 13:43:21;;;;;;;1999.90;999.90;;;17.90;1.00;;;;;;4818398;29;20421;-83
2021/04/09 13:45:47;;;;;;;1999.90;999.90;;;17.80;1.00;;;;;;4833063;29;20896;-83
2021/04/09 13:48:14;;;;;;;1999.90;999.90;;;17.60;1.00;;;;;;4833452;29;20432;-83
2021/04/09 13:50:39;;;;;;;1999.90;999.90;;;17.60;1.00;;;;;;4833410;29;20924;-83
2021/04/09 13:53:06;;;;;;;1999.90;999.90;;;17.50;1.00;;;;;;4817663;29;20426;-83
2021/04/09 13:55:31;;;;;;;1999.90;999.90;;;17.50;1.00;;;;;;4816974;29;20234;-82
2021/04/09 13:57:58;;;;;;;1999.90;999.90;;;17.50;1.00;;;;;;4817064;29;20448;-84
2021/04/09 14:00:24;;;;;;;1999.90;999.90;;;17.50;1.00;;;;;;4817259;29;20457;-83
2021/04/09 14:02:50;;;;;;;1999.90;999.90;;;17.40;1.00;;;;;;4833494;29;20419;-83
2021/04/09 14:05:16;;;;;;;1999.90;999.90;;;17.50;1.00;;;;;;4834006;29;20417;-83
2021/04/09 14:07:42;;;;;;;1999.90;999.90;;;17.60;1.00;;;;;;4818007;29;20343;-83
2021/04/09 14:10:09;;;;;;;1999.90;999.90;;;17.60;1.00;;;;;;4833654;29;20416;-83
2021/04/09 14:12:35;;;;;;;1999.90;999.90;;;17.80;1.00;;;;;;4816621;29;20429;-83
2021/04/09 14:15:01;;;;;;;1999.90;999.90;;;17.70;1.00;;;;;;4833446;29;20489;-83
2021/04/09 14:17:27;;;;;;;1999.90;999.90;;;17.80;1.00;;;;;;4832658;29;20432;-83
2021/04/09 14:19:53;;;;;;;1999.90;999.90;;;17.60;1.00;;;;;;4831855;29;20439;-83
2021/04/09 14:22:19;;;;;;;1999.90;999.90;;;17.50;1.00;;;;;;4832333;29;20171;-83
2021/04/09 14:24:44;;;;;;;1999.90;999.90;;;17.40;1.00;;;;;;4831700;29;20207;-83
2021/04/09 14:27:10;;;;;;;1999.90;999.90;;;17.30;1.00;;;;;;4815711;29;20547;-83
2021/04/09 14:29:36;;;;;;;1999.90;999.90;;;17.30;1.00;;;;;;4815515;29;20182;-83
2021/04/09 14:32:02;;;;;;;1999.90;999.90;;;17.30;1.00;;;;;;4815406;29;20182;-83
2021/04/09 14:34:28;;;;;;;1999.90;999.90;;;17.40;1.00;;;;;;4815085;29;20199;-83
2021/04/09 14:36:57;;;;;;;1999.90;999.90;;;17.50;1.00;;;;;;4815615;29;20455;-83
2021/04/09 14:39:22;;;;;;;1999.90;999.90;;;17.40;1.00;;;;;;4831312;29;20262;-84
2021/04/09 14:41:48;;;;;;;1999.90;999.90;;;17.20;1.00;;;;;;4830803;29;20455;-83
2021/04/09 14:44:14;;;;;;;1999.90;999.90;;;17.30;1.00;;;;;;4831149;29;20605;-84
2021/04/09 14:46:41;;;;;;;1999.90;999.90;;;17.10;1.00;;;;;;4831228;29;20264;-83
2021/04/09 14:49:08;;;;;;;1999.90;999.90;;;17.10;1.00;;;;;;4830783;29;20175;-83
2021/04/09 14:51:34;;;;;;;1999.90;999.90;;;17.10;1.00;;;;;;4830377;29;20445;-83
2021/04/09 14:54:00;;;;;;;1999.90;999.90;;;17.20;1.00;;;;;;4831011;29;20415;-83
2021/04/09 14:56:29;;;;;;;1999.90;999.90;;;17.20;1.00;;;;;;4830808;29;20472;-84
2021/04/09 14:58:55;;;;;;;1999.90;999.90;;;17.10;1.00;;;;;;4830751;29;20419;-83
2021/04/09 15:01:21;;;;;;;1999.90;999.90;;;17.00;1.00;;;;;;4814199;29;20420;-84
2021/04/09 15:03:51;;;;;;;1999.90;999.90;;;17.10;1.00;;;;;;4814456;29;20423;-84
2021/04/09 15:06:18;;;;;;;1999.90;999.90;;;17.10;1.00;;;;;;4830868;29;20522;-84
2021/04/09 15:08:46;;;;;;;1999.90;999.90;;;17.20;1.00;;;;;;4814453;29;20510;-84
2021/04/09 15:11:12;;;;;;;1999.90;999.90;;;17.10;1.00;;;;;;4830245;29;20427;-83
2021/04/09 15:13:38;;;;;;;1999.90;999.90;;;17.00;1.00;;;;;;4830299;29;20445;-83
2021/04/09 15:16:05;;;;;;;1999.90;999.90;;;17.00;1.00;;;;;;4830130;29;20207;-84
2021/04/09 15:18:31;;;;;;;1999.90;999.90;;;17.10;1.00;;;;;;4829636;29;20694;-83
2021/04/09 15:21:00;;;;;;;1999.90;999.90;;;17.30;1.00;;;;;;4829766;29;20412;-82
2021/04/09 15:23:28;;;;;;;1999.90;999.90;;;17.20;1.00;;;;;;4829216;29;20487;-83
2021/04/09 15:25:57;;;;;;;1999.90;999.90;;;17.20;1.00;;;;;;4829252;29;20423;-83
2021/04/09 15:28:24;;;;;;;1999.90;999.90;;;17.30;1.00;;;;;;4829444;29;20422;-83
2021/04/09 15:30:56;;;;;;;1999.90;999.90;;;17.30;1.00;;;;;;4828055;29;20419;-81
2021/04/09 15:33:26;;;;;;;1999.90;999.90;;;17.10;1.00;;;;;;4833816;29;20400;-79
2021/04/09 15:36:01;;;;;;;1999.90;999.90;;;16.90;1.00;;;;;;4835936;29;20517;-80
2021/04/09 15:38:30;;;;;;;1999.90;999.90;;;16.70;1.00;;;;;;4836034;29;20506;-80
2021/04/09 15:41:01;;;;;;;1999.90;999.90;;;16.40;1.00;;;;;;4836824;29;20409;-80
2021/04/09 15:43:28;;;;;;;1999.90;999.90;;;16.20;1.00;;;;;;4835812;29;20407;-79
2021/04/09 15:45:54;;;;;;;1999.90;999.90;;;16.20;1.00;;;;;;4834489;29;20434;-79
2021/04/09 15:48:19;;;;;;;1999.90;999.90;;;16.20;1.00;;;;;;4835131;29;20426;-79
2021/04/09 15:50:46;;;;;;;1999.90;999.90;;;16.00;1.00;;;;;;4835617;29;20919;-78
2021/04/09 15:53:11;;;;;;;1999.90;999.90;;;16.00;1.00;;;;;;4835413;29;20242;-79
2021/04/09 15:55:37;;;;;;;1999.90;999.90;;;16.00;1.00;;;;;;4818403;29;20923;-78
2021/04/09 15:58:04;;;;;;;1999.90;999.90;;;15.80;1.00;;;;;;4836248;29;20189;-78
2021/04/09 16:00:30;;;;;;;1999.90;999.90;;;15.80;1.00;;;;;;4818625;29;20175;-79
2021/04/09 16:02:57;;;;;;;1999.90;999.90;;;15.80;1.00;;;;;;4818766;29;20418;-79
2021/04/09 16:05:24;;;;;;;1999.90;999.90;;;15.80;1.00;;;;;;4835003;29;20425;-79
2021/04/09 16:07:50;;;;;;;1999.90;999.90;;;15.80;1.00;;;;;;4835152;29;20436;-78
2021/04/09 16:10:17;;;;;;;1999.90;999.90;;;15.90;1.00;;;;;;4817330;29;20838;-78
2021/04/09 16:12:43;;;;;;;1999.90;999.90;;;15.90;1.00;;;;;;4835919;29;20414;-79
2021/04/09 16:15:11;;;;;;;1999.90;999.90;;;15.90;1.00;;;;;;4819403;29;20461;-79
2021/04/09 16:17:37;;;;;;;1999.90;999.90;;;15.90;1.00;;;;;;4835914;29;20962;-78
2021/04/09 16:20:08;;;;;;;1999.90;999.90;;;15.90;1.00;;;;;;4837590;29;20463;-79
2021/04/09 16:22:35;;;;;;;1999.90;999.90;;;15.90;1.00;;;;;;4837241;29;20414;-79
2021/04/09 16:25:01;;;;;;;1999.90;999.90;;;15.70;1.00;;;;;;4821837;29;20459;-79
2021/04/09 16:27:27;;;;;;;1999.90;999.90;;;15.70;1.00;;;;;;4838072;29;20930;-79
2021/04/09 16:29:53;;;;;;;1999.90;999.90;;;15.60;1.00;;;;;;4838941;29;20418;-79
2021/04/09 16:32:19;;;;;;;1999.90;999.90;;;15.70;1.00;;;;;;4837096;29;20173;-80
2021/04/09 16:34:44;;;;;;;1999.90;999.90;;;15.80;1.00;;;;;;4838271;29;20478;-80
2021/04/09 16:37:10;;;;;;;1999.90;999.90;;;15.60;1.00;;;;;;4837530;29;20195;-79
2021/04/09 16:39:35;;;;;;;1999.90;999.90;;;15.60;1.00;;;;;;4838336;29;20173;-79
2021/04/09 16:42:01;;;;;;;1999.90;999.90;;;15.60;1.00;;;;;;4841280;29;20169;-79
2021/04/09 16:44:27;;;;;;;1999.90;999.90;;;15.60;1.00;;;;;;4840871;29;20168;-79
2021/04/09 16:46:53;;;;;;;1999.90;999.90;;;15.40;1.00;;;;;;4840640;29;20556;-79
2021/04/09 16:49:19;;;;;;;1999.90;999.90;;;15.40;1.00;;;;;;4843208;29;20406;-79
2021/04/09 16:51:45;;;;;;;1999.90;999.90;;;15.40;1.00;;;;;;4843149;29;20424;-78
2021/04/09 16:54:10;;;;;;;1999.90;999.90;;;15.40;1.00;;;;;;4842012;29;20258;-79
2021/04/09 16:56:36;;;;;;;1999.90;999.90;;;15.40;1.00;;;;;;4841790;29;20203;-79
2021/04/09 16:59:02;;;;;;;1999.90;999.90;;;15.50;1.00;;;;;;4838136;29;20176;-78
2021/04/09 17:01:27;;;;;;;1999.90;999.90;;;15.70;1.00;;;;;;4830644;29;20820;-78
2021/04/09 17:03:53;;;;;;;1999.90;999.90;;;15.80;1.00;;;;;;4832616;29;20206;-82
2021/04/09 17:06:19;;;;;;;1999.90;999.90;;;15.70;1.00;;;;;;4817039;29;20201;-80
2021/04/09 17:08:44;;;;;;;1999.90;999.90;;;15.60;1.00;;;;;;4832997;29;20180;-80
2021/04/09 17:11:10;;;;;;;1999.90;999.90;;;15.60;1.00;;;;;;4831890;29;20169;-78
2021/04/09 17:13:36;;;;;;;1999.90;999.90;;;15.70;1.00;;;;;;4832534;29;20264;-81
2021/04/09 17:16:02;;;;;;;1999.90;999.90;;;15.70;1.00;;;;;;4832920;29;20294;-81